Decoded Metar for KTGI ( in ) (IATA:) | Meteo·Mobile Aviation Weather
aviador You're here:

KTGI Decoded Metar

in
Report Time2018-09-19 14:17:00
UTC Time2018-09-19 14:26:14
Flight Rules vfr VFR
Wind350° at 15 kt
W.Decomp.*RWY 02: 13.0 kt HW 7.5 kt LCW
W.Rank350° ranks 9
Current wind is above 350° avg. (11.5)
Visibility9999 m
Phenomena:N/A
Clouds:N/A
Expected CloudBase > 2,000 ft AGL from Temp-Dew spread
CeilingNone
Temp27°C
Dew Point22°C (74% RH)
Heat Index29.2°C
AAT26.3°C
QNH1013 hPa
Raw Report
METAR KTGI 191417Z AUTO 35015KT 10SM CLR 27/22 A2990 RMK AO1=

Extra information for KTGI:More info

Social comments